sensor_id;sensor_type;location;lat;lon;timestamp;temperature;humidity
4828;DHT22;2428;48.732;9.148;2022-08-07T00:01:18;16.30;99.90
4828;DHT22;2428;48.732;9.148;2022-08-07T00:03:44;16.20;99.90
4828;DHT22;2428;48.732;9.148;2022-08-07T00:06:10;16.20;99.90
4828;DHT22;2428;48.732;9.148;2022-08-07T00:08:36;16.20;99.90
4828;DHT22;2428;48.732;9.148;2022-08-07T00:11:03;16.20;99.90
4828;DHT22;2428;48.732;9.148;2022-08-07T00:13:29;16.10;99.90
4828;DHT22;2428;48.732;9.148;2022-08-07T00:15:55;16.20;99.90
4828;DHT22;2428;48.732;9.148;2022-08-07T00:18:24;16.20;99.90
4828;DHT22;2428;48.732;9.148;2022-08-07T00:21:01;16.20;99.90
4828;DHT22;2428;48.732;9.148;2022-08-07T00:23:26;16.20;99.90
4828;DHT22;2428;48.732;9.148;2022-08-07T00:25:52;16.20;99.90
4828;DHT22;2428;48.732;9.148;2022-08-07T00:28:19;16.10;99.90
4828;DHT22;2428;48.732;9.148;2022-08-07T00:30:44;16.20;99.90
4828;DHT22;2428;48.732;9.148;2022-08-07T00:33:10;16.10;99.90
4828;DHT22;2428;48.732;9.148;2022-08-07T00:35:36;16.10;99.90
4828;DHT22;2428;48.732;9.148;2022-08-07T00:38:02;15.90;99.90
4828;DHT22;2428;48.732;9.148;2022-08-07T00:40:28;15.90;99.90
4828;DHT22;2428;48.732;9.148;2022-08-07T00:42:54;15.80;99.90
4828;DHT22;2428;48.732;9.148;2022-08-07T00:45:21;15.80;99.90
4828;DHT22;2428;48.732;9.148;2022-08-07T00:47:47;15.80;99.90
4828;DHT22;2428;48.732;9.148;2022-08-07T00:50:13;15.80;99.90
4828;DHT22;2428;48.732;9.148;2022-08-07T00:52:39;15.80;99.90
4828;DHT22;2428;48.732;9.148;2022-08-07T00:55:05;15.70;99.90
4828;DHT22;2428;48.732;9.148;2022-08-07T00:57:31;15.70;99.90
4828;DHT22;2428;48.732;9.148;2022-08-07T00:59:57;15.70;99.90
4828;DHT22;2428;48.732;9.148;2022-08-07T01:02:23;15.70;99.90
4828;DHT22;2428;48.732;9.148;2022-08-07T01:04:50;15.70;99.90
4828;DHT22;2428;48.732;9.148;2022-08-07T01:07:16;15.60;99.90
4828;DHT22;2428;48.732;9.148;2022-08-07T01:09:43;15.50;99.90
4828;DHT22;2428;48.732;9.148;2022-08-07T01:12:09;15.60;99.90
4828;DHT22;2428;48.732;9.148;2022-08-07T01:14:34;15.50;99.90
4828;DHT22;2428;48.732;9.148;2022-08-07T01:17:00;15.50;99.90
4828;DHT22;2428;48.732;9.148;2022-08-07T01:19:28;15.40;99.90
4828;DHT22;2428;48.732;9.148;2022-08-07T01:21:55;15.30;99.90
4828;DHT22;2428;48.732;9.148;2022-08-07T01:24:21;15.30;99.90
4828;DHT22;2428;48.732;9.148;2022-08-07T01:26:49;15.40;99.90
4828;DHT22;2428;48.732;9.148;2022-08-07T01:29:16;15.30;99.90
4828;DHT22;2428;48.732;9.148;2022-08-07T01:31:42;15.30;99.90
4828;DHT22;2428;48.732;9.148;2022-08-07T01:34:07;15.20;99.90
4828;DHT22;2428;48.732;9.148;2022-08-07T01:36:33;15.20;99.90
4828;DHT22;2428;48.732;9.148;2022-08-07T01:38:59;15.20;99.90
4828;DHT22;2428;48.732;9.148;2022-08-07T01:41:25;15.20;99.90
4828;DHT22;2428;48.732;9.148;2022-08-07T01:43:51;15.20;99.90
4828;DHT22;2428;48.732;9.148;2022-08-07T01:46:19;15.10;99.90
4828;DHT22;2428;48.732;9.148;2022-08-07T01:48:46;15.10;99.90
4828;DHT22;2428;48.732;9.148;2022-08-07T01:51:17;15.00;99.90
4828;DHT22;2428;48.732;9.148;2022-08-07T01:53:46;15.10;99.90
4828;DHT22;2428;48.732;9.148;2022-08-07T01:56:15;15.00;99.90
4828;DHT22;2428;48.732;9.148;2022-08-07T01:58:46;15.00;99.90
4828;DHT22;2428;48.732;9.148;2022-08-07T02:01:15;15.00;99.90
4828;DHT22;2428;48.732;9.148;2022-08-07T02:03:48;15.00;99.90
4828;DHT22;2428;48.732;9.148;2022-08-07T02:06:16;15.00;99.90
4828;DHT22;2428;48.732;9.148;2022-08-07T02:08:43;14.90;99.90
4828;DHT22;2428;48.732;9.148;2022-08-07T02:11:11;14.80;99.90
4828;DHT22;2428;48.732;9.148;2022-08-07T02:13:38;14.80;99.90
4828;DHT22;2428;48.732;9.148;2022-08-07T02:16:06;14.80;99.90
4828;DHT22;2428;48.732;9.148;2022-08-07T02:18:35;14.80;99.90
4828;DHT22;2428;48.732;9.148;2022-08-07T02:21:04;14.80;99.90
4828;DHT22;2428;48.732;9.148;2022-08-07T02:23:33;14.80;99.90
4828;DHT22;2428;48.732;9.148;2022-08-07T02:26:00;14.80;99.90
4828;DHT22;2428;48.732;9.148;2022-08-07T02:28:28;14.80;99.90
4828;DHT22;2428;48.732;9.148;2022-08-07T02:30:55;14.80;99.90
4828;DHT22;2428;48.732;9.148;2022-08-07T02:33:26;14.80;99.90
4828;DHT22;2428;48.732;9.148;2022-08-07T02:35:53;14.80;99.90
4828;DHT22;2428;48.732;9.148;2022-08-07T02:38:23;14.90;99.90
4828;DHT22;2428;48.732;9.148;2022-08-07T02:40:50;14.80;99.90
4828;DHT22;2428;48.732;9.148;2022-08-07T02:43:16;14.80;99.90
4828;DHT22;2428;48.732;9.148;2022-08-07T02:45:43;14.70;99.90
4828;DHT22;2428;48.732;9.148;2022-08-07T02:48:10;14.60;99.90
4828;DHT22;2428;48.732;9.148;2022-08-07T02:50:43;14.70;99.90
4828;DHT22;2428;48.732;9.148;2022-08-07T02:53:16;14.70;99.90
4828;DHT22;2428;48.732;9.148;2022-08-07T02:55:46;14.70;99.90
4828;DHT22;2428;48.732;9.148;2022-08-07T02:58:18;14.70;99.90
4828;DHT22;2428;48.732;9.148;2022-08-07T03:00:49;14.70;99.90
4828;DHT22;2428;48.732;9.148;2022-08-07T03:03:16;14.60;99.90
4828;DHT22;2428;48.732;9.148;2022-08-07T03:05:44;14.60;99.90
4828;DHT22;2428;48.732;9.148;2022-08-07T03:08:10;14.50;99.90
4828;DHT22;2428;48.732;9.148;2022-08-07T03:10:38;14.50;99.90
4828;DHT22;2428;48.732;9.148;2022-08-07T03:13:05;14.50;99.90
4828;DHT22;2428;48.732;9.148;2022-08-07T03:15:31;14.50;99.90
4828;DHT22;2428;48.732;9.148;2022-08-07T03:17:58;14.50;99.90
4828;DHT22;2428;48.732;9.148;2022-08-07T03:20:24;14.50;99.90
4828;DHT22;2428;48.732;9.148;2022-08-07T03:22:51;14.50;99.90
4828;DHT22;2428;48.732;9.148;2022-08-07T03:25:18;14.50;99.90
4828;DHT22;2428;48.732;9.148;2022-08-07T03:27:45;14.50;99.90
4828;DHT22;2428;48.732;9.148;2022-08-07T03:30:12;14.50;99.90
4828;DHT22;2428;48.732;9.148;2022-08-07T03:32:39;14.40;99.90
4828;DHT22;2428;48.732;9.148;2022-08-07T03:35:10;14.40;99.90
4828;DHT22;2428;48.732;9.148;2022-08-07T03:37:38;14.40;99.90
4828;DHT22;2428;48.732;9.148;2022-08-07T03:40:05;14.40;99.90
4828;DHT22;2428;48.732;9.148;2022-08-07T03:42:33;14.40;99.90
4828;DHT22;2428;48.732;9.148;2022-08-07T03:45:00;14.40;99.90
4828;DHT22;2428;48.732;9.148;2022-08-07T03:47:26;14.40;99.90
4828;DHT22;2428;48.732;9.148;2022-08-07T03:49:52;14.30;99.90
4828;DHT22;2428;48.732;9.148;2022-08-07T03:52:21;14.30;99.90
4828;DHT22;2428;48.732;9.148;2022-08-07T03:54:46;14.30;99.90
4828;DHT22;2428;48.732;9.148;2022-08-07T03:57:13;14.30;99.90
4828;DHT22;2428;48.732;9.148;2022-08-07T03:59:40;14.30;99.90
4828;DHT22;2428;48.732;9.148;2022-08-07T04:02:06;14.20;99.90
4828;DHT22;2428;48.732;9.148;2022-08-07T04:04:33;14.30;99.90
4828;DHT22;2428;48.732;9.148;2022-08-07T04:06:59;14.30;99.90
4828;DHT22;2428;48.732;9.148;2022-08-07T04:09:25;14.30;99.90
4828;DHT22;2428;48.732;9.148;2022-08-07T04:11:53;14.20;99.90
4828;DHT22;2428;48.732;9.148;2022-08-07T04:14:19;14.30;99.90
4828;DHT22;2428;48.732;9.148;2022-08-07T04:16:46;14.30;99.90
4828;DHT22;2428;48.732;9.148;2022-08-07T04:19:14;14.30;99.90
4828;DHT22;2428;48.732;9.148;2022-08-07T04:21:39;14.30;99.90
4828;DHT22;2428;48.732;9.148;2022-08-07T04:24:06;14.20;99.90
4828;DHT22;2428;48.732;9.148;2022-08-07T04:26:35;14.20;99.90
4828;DHT22;2428;48.732;9.148;2022-08-07T04:29:01;14.20;99.90
4828;DHT22;2428;48.732;9.148;2022-08-07T04:31:27;14.20;99.90
4828;DHT22;2428;48.732;9.148;2022-08-07T04:33:52;14.20;99.90
4828;DHT22;2428;48.732;9.148;2022-08-07T04:36:18;14.20;99.90
4828;DHT22;2428;48.732;9.148;2022-08-07T04:38:44;14.20;99.90
4828;DHT22;2428;48.732;9.148;2022-08-07T04:41:10;14.20;99.90
4828;DHT22;2428;48.732;9.148;2022-08-07T04:43:37;14.30;99.90
4828;DHT22;2428;48.732;9.148;2022-08-07T04:46:13;14.30;99.90
4828;DHT22;2428;48.732;9.148;2022-08-07T04:48:53;14.30;99.90
4828;DHT22;2428;48.732;9.148;2022-08-07T05:00:11;14.40;99.90
4828;DHT22;2428;48.732;9.148;2022-08-07T05:02:59;14.40;99.90
4828;DHT22;2428;48.732;9.148;2022-08-07T05:05:34;14.40;99.90
4828;DHT22;2428;48.732;9.148;2022-08-07T05:08:19;14.50;99.90
4828;DHT22;2428;48.732;9.148;2022-08-07T05:11:04;14.60;99.90
4828;DHT22;2428;48.732;9.148;2022-08-07T05:13:44;14.60;99.90
4828;DHT22;2428;48.732;9.148;2022-08-07T05:16:14;14.70;99.90
4828;DHT22;2428;48.732;9.148;2022-08-07T05:18:49;14.70;99.90
4828;DHT22;2428;48.732;9.148;2022-08-07T05:21:17;14.80;99.90
4828;DHT22;2428;48.732;9.148;2022-08-07T05:23:52;14.80;99.90
4828;DHT22;2428;48.732;9.148;2022-08-07T05:26:22;14.90;99.90
4828;DHT22;2428;48.732;9.148;2022-08-07T05:28:52;15.00;99.90
4828;DHT22;2428;48.732;9.148;2022-08-07T05:31:20;15.00;99.90
4828;DHT22;2428;48.732;9.148;2022-08-07T05:33:47;15.10;99.90
4828;DHT22;2428;48.732;9.148;2022-08-07T05:36:14;15.10;99.90
4828;DHT22;2428;48.732;9.148;2022-08-07T05:38:40;15.20;99.90
4828;DHT22;2428;48.732;9.148;2022-08-07T05:41:07;15.30;99.90
4828;DHT22;2428;48.732;9.148;2022-08-07T05:43:34;15.30;99.90
4828;DHT22;2428;48.732;9.148;2022-08-07T05:45:59;15.40;99.90
4828;DHT22;2428;48.732;9.148;2022-08-07T05:48:28;15.40;99.90
4828;DHT22;2428;48.732;9.148;2022-08-07T05:50:55;15.40;99.90
4828;DHT22;2428;48.732;9.148;2022-08-07T05:53:22;15.50;99.90
4828;DHT22;2428;48.732;9.148;2022-08-07T05:55:49;15.60;99.90
4828;DHT22;2428;48.732;9.148;2022-08-07T05:58:16;15.60;99.90
4828;DHT22;2428;48.732;9.148;2022-08-07T06:00:43;15.70;99.90
4828;DHT22;2428;48.732;9.148;2022-08-07T06:03:11;15.80;99.90
4828;DHT22;2428;48.732;9.148;2022-08-07T06:05:38;15.90;99.90
4828;DHT22;2428;48.732;9.148;2022-08-07T06:08:05;16.00;99.90
4828;DHT22;2428;48.732;9.148;2022-08-07T06:10:31;16.10;99.90
4828;DHT22;2428;48.732;9.148;2022-08-07T06:12:59;16.20;99.90
4828;DHT22;2428;48.732;9.148;2022-08-07T06:15:25;16.30;99.90
4828;DHT22;2428;48.732;9.148;2022-08-07T06:17:53;16.50;99.90
4828;DHT22;2428;48.732;9.148;2022-08-07T06:20:19;16.60;99.90
4828;DHT22;2428;48.732;9.148;2022-08-07T06:22:46;16.70;99.90
4828;DHT22;2428;48.732;9.148;2022-08-07T06:25:12;16.80;99.90
4828;DHT22;2428;48.732;9.148;2022-08-07T06:27:38;16.90;99.90
4828;DHT22;2428;48.732;9.148;2022-08-07T06:30:03;16.90;99.90
4828;DHT22;2428;48.732;9.148;2022-08-07T06:32:30;17.00;99.90
4828;DHT22;2428;48.732;9.148;2022-08-07T06:34:55;17.10;99.90
4828;DHT22;2428;48.732;9.148;2022-08-07T06:37:21;17.20;99.90
4828;DHT22;2428;48.732;9.148;2022-08-07T06:39:46;17.30;99.90
4828;DHT22;2428;48.732;9.148;2022-08-07T06:42:19;17.40;99.90
4828;DHT22;2428;48.732;9.148;2022-08-07T06:44:47;17.40;99.90
4828;DHT22;2428;48.732;9.148;2022-08-07T06:47:13;17.50;99.90
4828;DHT22;2428;48.732;9.148;2022-08-07T06:49:39;17.60;99.90
4828;DHT22;2428;48.732;9.148;2022-08-07T06:52:07;17.60;99.90
4828;DHT22;2428;48.732;9.148;2022-08-07T06:54:34;17.70;99.90
4828;DHT22;2428;48.732;9.148;2022-08-07T06:57:01;17.70;99.90
4828;DHT22;2428;48.732;9.148;2022-08-07T06:59:33;17.80;99.90
4828;DHT22;2428;48.732;9.148;2022-08-07T07:02:00;17.90;99.90
4828;DHT22;2428;48.732;9.148;2022-08-07T07:04:27;17.90;99.90
4828;DHT22;2428;48.732;9.148;2022-08-07T07:06:55;17.90;99.90
4828;DHT22;2428;48.732;9.148;2022-08-07T07:12:00;18.10;99.90
4828;DHT22;2428;48.732;9.148;2022-08-07T07:14:32;18.20;99.90
4828;DHT22;2428;48.732;9.148;2022-08-07T07:17:05;18.30;99.90
4828;DHT22;2428;48.732;9.148;2022-08-07T07:19:37;18.40;99.90
4828;DHT22;2428;48.732;9.148;2022-08-07T07:22:06;18.40;99.90
4828;DHT22;2428;48.732;9.148;2022-08-07T07:24:32;18.50;99.90
4828;DHT22;2428;48.732;9.148;2022-08-07T07:26:59;18.60;99.90
4828;DHT22;2428;48.732;9.148;2022-08-07T07:29:29;18.60;99.90
4828;DHT22;2428;48.732;9.148;2022-08-07T07:32:00;18.70;99.90
4828;DHT22;2428;48.732;9.148;2022-08-07T07:34:29;18.70;99.90
4828;DHT22;2428;48.732;9.148;2022-08-07T07:37:00;18.80;99.90
4828;DHT22;2428;48.732;9.148;2022-08-07T07:39:28;18.90;99.90
4828;DHT22;2428;48.732;9.148;2022-08-07T07:41:55;19.00;99.90
4828;DHT22;2428;48.732;9.148;2022-08-07T07:44:22;19.00;99.90
4828;DHT22;2428;48.732;9.148;2022-08-07T07:46:49;19.10;99.90
4828;DHT22;2428;48.732;9.148;2022-08-07T07:49:17;19.20;99.90
4828;DHT22;2428;48.732;9.148;2022-08-07T07:51:45;19.20;99.90
4828;DHT22;2428;48.732;9.148;2022-08-07T07:54:12;19.30;99.90
4828;DHT22;2428;48.732;9.148;2022-08-07T07:56:39;19.40;99.90
4828;DHT22;2428;48.732;9.148;2022-08-07T07:59:06;19.40;99.90
4828;DHT22;2428;48.732;9.148;2022-08-07T08:01:33;19.40;99.90
4828;DHT22;2428;48.732;9.148;2022-08-07T08:04:03;19.50;99.90
4828;DHT22;2428;48.732;9.148;2022-08-07T08:06:31;19.50;99.90
4828;DHT22;2428;48.732;9.148;2022-08-07T08:08:59;19.60;99.90
4828;DHT22;2428;48.732;9.148;2022-08-07T08:11:27;19.60;99.90
4828;DHT22;2428;48.732;9.148;2022-08-07T08:13:53;19.70;99.90
4828;DHT22;2428;48.732;9.148;2022-08-07T08:16:21;19.80;99.90
4828;DHT22;2428;48.732;9.148;2022-08-07T08:18:50;19.90;99.90
4828;DHT22;2428;48.732;9.148;2022-08-07T08:21:17;19.90;99.90
4828;DHT22;2428;48.732;9.148;2022-08-07T08:24:04;20.00;99.90
4828;DHT22;2428;48.732;9.148;2022-08-07T08:26:50;20.10;99.90
4828;DHT22;2428;48.732;9.148;2022-08-07T08:29:46;20.10;99.90
4828;DHT22;2428;48.732;9.148;2022-08-07T08:32:17;20.10;99.90
4828;DHT22;2428;48.732;9.148;2022-08-07T08:34:46;20.20;99.90
4828;DHT22;2428;48.732;9.148;2022-08-07T08:37:14;20.40;99.90
4828;DHT22;2428;48.732;9.148;2022-08-07T08:39:42;20.40;99.90
4828;DHT22;2428;48.732;9.148;2022-08-07T08:45:09;20.50;99.90
4828;DHT22;2428;48.732;9.148;2022-08-07T08:48:03;20.60;99.90
4828;DHT22;2428;48.732;9.148;2022-08-07T08:50:41;20.60;99.90
4828;DHT22;2428;48.732;9.148;2022-08-07T08:53:55;20.60;99.90
4828;DHT22;2428;48.732;9.148;2022-08-07T08:56:27;20.60;99.90
4828;DHT22;2428;48.732;9.148;2022-08-07T08:59:28;20.60;99.90
4828;DHT22;2428;48.732;9.148;2022-08-07T09:08:06;20.90;99.90
4828;DHT22;2428;48.732;9.148;2022-08-07T09:11:09;20.90;99.90
4828;DHT22;2428;48.732;9.148;2022-08-07T09:21:58;20.90;99.90
4828;DHT22;2428;48.732;9.148;2022-08-07T09:24:42;20.90;99.90
4828;DHT22;2428;48.732;9.148;2022-08-07T09:27:33;21.00;99.90
4828;DHT22;2428;48.732;9.148;2022-08-07T09:30:07;20.90;99.90
4828;DHT22;2428;48.732;9.148;2022-08-07T09:32:49;21.00;99.90
4828;DHT22;2428;48.732;9.148;2022-08-07T09:35:54;21.00;99.90
4828;DHT22;2428;48.732;9.148;2022-08-07T09:38:45;21.20;99.90
4828;DHT22;2428;48.732;9.148;2022-08-07T09:41:27;21.30;99.90
4828;DHT22;2428;48.732;9.148;2022-08-07T09:46:58;21.40;99.90
4828;DHT22;2428;48.732;9.148;2022-08-07T09:49:54;21.50;99.90
4828;DHT22;2428;48.732;9.148;2022-08-07T09:55:12;21.60;99.90
4828;DHT22;2428;48.732;9.148;2022-08-07T09:58:19;21.60;98.70
4828;DHT22;2428;48.732;9.148;2022-08-07T10:01:03;21.70;98.70
4828;DHT22;2428;48.732;9.148;2022-08-07T10:37:28;29.40;75.00
4828;DHT22;2428;48.732;9.148;2022-08-07T10:40:18;30.00;67.30
4828;DHT22;2428;48.732;9.148;2022-08-07T10:43:13;30.80;62.90
4828;DHT22;2428;48.732;9.148;2022-08-07T10:45:46;32.10;57.20
4828;DHT22;2428;48.732;9.148;2022-08-07T10:48:24;32.70;55.40
4828;DHT22;2428;48.732;9.148;2022-08-07T10:51:19;32.90;53.90
4828;DHT22;2428;48.732;9.148;2022-08-07T10:53:51;33.00;53.50
4828;DHT22;2428;48.732;9.148;2022-08-07T11:07:44;33.70;51.50
4828;DHT22;2428;48.732;9.148;2022-08-07T11:10:24;33.40;48.00
4828;DHT22;2428;48.732;9.148;2022-08-07T11:13:03;33.20;49.60
4828;DHT22;2428;48.732;9.148;2022-08-07T11:15:37;33.20;49.20
4828;DHT22;2428;48.732;9.148;2022-08-07T11:18:33;33.40;48.20
4828;DHT22;2428;48.732;9.148;2022-08-07T11:21:08;33.70;48.00
4828;DHT22;2428;48.732;9.148;2022-08-07T11:24:11;34.20;48.50
4828;DHT22;2428;48.732;9.148;2022-08-07T11:32:07;34.10;51.10
4828;DHT22;2428;48.732;9.148;2022-08-07T11:34:58;34.70;48.10
4828;DHT22;2428;48.732;9.148;2022-08-07T11:48:48;34.30;48.50
4828;DHT22;2428;48.732;9.148;2022-08-07T11:57:02;33.00;48.30
4828;DHT22;2428;48.732;9.148;2022-08-07T12:08:00;33.50;47.50
4828;DHT22;2428;48.732;9.148;2022-08-07T12:10:38;33.40;47.00
4828;DHT22;2428;48.732;9.148;2022-08-07T12:13:30;32.90;47.90
4828;DHT22;2428;48.732;9.148;2022-08-07T12:16:12;32.10;45.30
4828;DHT22;2428;48.732;9.148;2022-08-07T12:18:50;31.70;46.40
4828;DHT22;2428;48.732;9.148;2022-08-07T12:24:03;32.10;48.30
4828;DHT22;2428;48.732;9.148;2022-08-07T12:29:27;31.20;49.50
4828;DHT22;2428;48.732;9.148;2022-08-07T12:34:37;31.10;50.00
4828;DHT22;2428;48.732;9.148;2022-08-07T12:37:04;31.50;48.60
4828;DHT22;2428;48.732;9.148;2022-08-07T12:39:31;31.30;51.50
4828;DHT22;2428;48.732;9.148;2022-08-07T12:41:59;31.20;50.00
4828;DHT22;2428;48.732;9.148;2022-08-07T12:44:25;31.00;49.80
4828;DHT22;2428;48.732;9.148;2022-08-07T12:49:32;30.90;49.90
4828;DHT22;2428;48.732;9.148;2022-08-07T12:54:58;30.70;50.40
4828;DHT22;2428;48.732;9.148;2022-08-07T12:57:30;30.30;50.80
4828;DHT22;2428;48.732;9.148;2022-08-07T12:59:58;30.00;51.00
4828;DHT22;2428;48.732;9.148;2022-08-07T13:16:59;27.80;53.00
4828;DHT22;2428;48.732;9.148;2022-08-07T13:19:42;27.50;55.10
4828;DHT22;2428;48.732;9.148;2022-08-07T13:22:17;27.30;53.60
4828;DHT22;2428;48.732;9.148;2022-08-07T13:24:49;27.20;54.10
4828;DHT22;2428;48.732;9.148;2022-08-07T13:30:07;27.30;55.90
4828;DHT22;2428;48.732;9.148;2022-08-07T13:32:49;27.30;54.80
4828;DHT22;2428;48.732;9.148;2022-08-07T13:38:15;27.50;55.60
4828;DHT22;2428;48.732;9.148;2022-08-07T13:40:52;27.60;55.10
4828;DHT22;2428;48.732;9.148;2022-08-07T13:43:21;27.70;55.50
4828;DHT22;2428;48.732;9.148;2022-08-07T13:45:53;27.70;54.90
4828;DHT22;2428;48.732;9.148;2022-08-07T13:48:20;27.70;54.20
4828;DHT22;2428;48.732;9.148;2022-08-07T13:50:48;27.50;55.30
4828;DHT22;2428;48.732;9.148;2022-08-07T13:53:22;27.20;53.90
4828;DHT22;2428;48.732;9.148;2022-08-07T13:55:51;27.20;56.70
4828;DHT22;2428;48.732;9.148;2022-08-07T13:58:17;27.50;56.90
4828;DHT22;2428;48.732;9.148;2022-08-07T14:01:14;27.40;54.20
4828;DHT22;2428;48.732;9.148;2022-08-07T14:03:41;27.50;55.40
4828;DHT22;2428;48.732;9.148;2022-08-07T14:06:08;27.30;55.50
4828;DHT22;2428;48.732;9.148;2022-08-07T14:08:46;27.50;58.20
4828;DHT22;2428;48.732;9.148;2022-08-07T14:11:14;27.80;56.10
4828;DHT22;2428;48.732;9.148;2022-08-07T14:13:41;27.90;55.60
4828;DHT22;2428;48.732;9.148;2022-08-07T14:16:13;28.10;56.30
4828;DHT22;2428;48.732;9.148;2022-08-07T14:18:44;28.20;55.20
4828;DHT22;2428;48.732;9.148;2022-08-07T14:21:18;28.20;54.70
4828;DHT22;2428;48.732;9.148;2022-08-07T14:23:53;28.20;54.40
4828;DHT22;2428;48.732;9.148;2022-08-07T14:26:25;28.20;55.20
4828;DHT22;2428;48.732;9.148;2022-08-07T14:28:55;28.20;55.20
4828;DHT22;2428;48.732;9.148;2022-08-07T14:31:23;27.90;55.70
4828;DHT22;2428;48.732;9.148;2022-08-07T14:33:51;27.60;52.90
4828;DHT22;2428;48.732;9.148;2022-08-07T14:36:18;27.20;54.00
4828;DHT22;2428;48.732;9.148;2022-08-07T14:38:46;27.20;56.50
4828;DHT22;2428;48.732;9.148;2022-08-07T14:41:26;27.10;54.30
4828;DHT22;2428;48.732;9.148;2022-08-07T14:43:54;27.10;56.00
4828;DHT22;2428;48.732;9.148;2022-08-07T14:46:21;27.30;55.90
4828;DHT22;2428;48.732;9.148;2022-08-07T14:48:50;27.60;55.10
4828;DHT22;2428;48.732;9.148;2022-08-07T14:51:26;27.70;54.20
4828;DHT22;2428;48.732;9.148;2022-08-07T14:53:57;27.70;53.30
4828;DHT22;2428;48.732;9.148;2022-08-07T14:56:27;27.70;52.70
4828;DHT22;2428;48.732;9.148;2022-08-07T14:58:57;27.90;55.30
4828;DHT22;2428;48.732;9.148;2022-08-07T15:01:30;28.20;56.70
4828;DHT22;2428;48.732;9.148;2022-08-07T15:04:04;28.50;55.60
4828;DHT22;2428;48.732;9.148;2022-08-07T15:06:37;28.60;53.40
4828;DHT22;2428;48.732;9.148;2022-08-07T15:09:09;28.70;53.30
4828;DHT22;2428;48.732;9.148;2022-08-07T15:11:57;28.70;54.30
4828;DHT22;2428;48.732;9.148;2022-08-07T15:14:25;28.70;54.20
4828;DHT22;2428;48.732;9.148;2022-08-07T15:19:23;28.60;54.00
4828;DHT22;2428;48.732;9.148;2022-08-07T15:21:52;28.50;54.40
4828;DHT22;2428;48.732;9.148;2022-08-07T15:24:37;28.50;53.30
4828;DHT22;2428;48.732;9.148;2022-08-07T15:27:15;28.20;52.30
4828;DHT22;2428;48.732;9.148;2022-08-07T15:29:45;28.10;53.20
4828;DHT22;2428;48.732;9.148;2022-08-07T15:32:12;28.00;54.10
4828;DHT22;2428;48.732;9.148;2022-08-07T15:34:49;27.90;54.80
4828;DHT22;2428;48.732;9.148;2022-08-07T15:37:18;27.60;53.90
4828;DHT22;2428;48.732;9.148;2022-08-07T15:39:48;27.30;55.80
4828;DHT22;2428;48.732;9.148;2022-08-07T15:45:02;26.70;55.30
4828;DHT22;2428;48.732;9.148;2022-08-07T15:47:34;26.40;56.10
4828;DHT22;2428;48.732;9.148;2022-08-07T15:50:04;26.50;56.60
4828;DHT22;2428;48.732;9.148;2022-08-07T15:52:33;26.60;55.20
4828;DHT22;2428;48.732;9.148;2022-08-07T15:55:02;26.60;55.90
4828;DHT22;2428;48.732;9.148;2022-08-07T15:57:29;26.80;55.50
4828;DHT22;2428;48.732;9.148;2022-08-07T15:59:56;26.90;55.60
4828;DHT22;2428;48.732;9.148;2022-08-07T16:02:32;26.90;54.60
4828;DHT22;2428;48.732;9.148;2022-08-07T16:05:07;26.90;53.90
4828;DHT22;2428;48.732;9.148;2022-08-07T16:07:41;26.70;54.50
4828;DHT22;2428;48.732;9.148;2022-08-07T16:10:15;26.70;55.10
4828;DHT22;2428;48.732;9.148;2022-08-07T16:21:30;26.60;55.10
4828;DHT22;2428;48.732;9.148;2022-08-07T16:24:03;26.50;55.30
4828;DHT22;2428;48.732;9.148;2022-08-07T16:32:12;26.20;56.80
4828;DHT22;2428;48.732;9.148;2022-08-07T16:37:47;26.30;56.40
4828;DHT22;2428;48.732;9.148;2022-08-07T16:57:00;25.80;56.20
4828;DHT22;2428;48.732;9.148;2022-08-07T16:59:42;25.70;56.40
4828;DHT22;2428;48.732;9.148;2022-08-07T17:07:53;25.60;56.50
4828;DHT22;2428;48.732;9.148;2022-08-07T17:10:51;25.60;56.30
4828;DHT22;2428;48.732;9.148;2022-08-07T17:16:08;25.40;57.40
4828;DHT22;2428;48.732;9.148;2022-08-07T17:18:48;25.30;58.10
4828;DHT22;2428;48.732;9.148;2022-08-07T17:21:23;25.30;56.60
4828;DHT22;2428;48.732;9.148;2022-08-07T17:27:06;25.20;56.30
4828;DHT22;2428;48.732;9.148;2022-08-07T17:35:14;25.00;57.10
4828;DHT22;2428;48.732;9.148;2022-08-07T17:40:34;24.90;56.80
4828;DHT22;2428;48.732;9.148;2022-08-07T17:43:21;24.90;64.70
4828;DHT22;2428;48.732;9.148;2022-08-07T17:48:49;24.60;57.90
4828;DHT22;2428;48.732;9.148;2022-08-07T17:51:23;24.40;58.70
4828;DHT22;2428;48.732;9.148;2022-08-07T17:54:16;24.30;60.50
4828;DHT22;2428;48.732;9.148;2022-08-07T17:59:55;24.40;73.20
4828;DHT22;2428;48.732;9.148;2022-08-07T18:02:32;24.30;65.30
4828;DHT22;2428;48.732;9.148;2022-08-07T18:13:19;24.10;65.80
4828;DHT22;2428;48.732;9.148;2022-08-07T18:16:13;24.00;64.80
4828;DHT22;2428;48.732;9.148;2022-08-07T18:18:48;23.90;71.00
4828;DHT22;2428;48.732;9.148;2022-08-07T18:24:04;23.80;63.60
4828;DHT22;2428;48.732;9.148;2022-08-07T18:49:12;23.30;61.10
4828;DHT22;2428;48.732;9.148;2022-08-07T18:52:06;23.20;60.80
4828;DHT22;2428;48.732;9.148;2022-08-07T18:57:12;23.10;62.70
4828;DHT22;2428;48.732;9.148;2022-08-07T19:00:03;23.00;65.10
4828;DHT22;2428;48.732;9.148;2022-08-07T19:08:02;22.70;66.90
4828;DHT22;2428;48.732;9.148;2022-08-07T19:10:30;22.60;64.60
4828;DHT22;2428;48.732;9.148;2022-08-07T19:23:40;22.30;70.00
4828;DHT22;2428;48.732;9.148;2022-08-07T19:26:09;22.20;70.10
4828;DHT22;2428;48.732;9.148;2022-08-07T19:28:48;22.20;65.70
4828;DHT22;2428;48.732;9.148;2022-08-07T19:33:49;22.00;75.40
4828;DHT22;2428;48.732;9.148;2022-08-07T19:36:16;21.90;72.90
4828;DHT22;2428;48.732;9.148;2022-08-07T19:38:47;21.80;67.40
4828;DHT22;2428;48.732;9.148;2022-08-07T19:41:19;21.80;67.90
4828;DHT22;2428;48.732;9.148;2022-08-07T19:43:46;21.80;68.70
4828;DHT22;2428;48.732;9.148;2022-08-07T19:46:15;21.70;73.50
4828;DHT22;2428;48.732;9.148;2022-08-07T19:48:54;21.70;71.00
4828;DHT22;2428;48.732;9.148;2022-08-07T19:51:22;21.60;76.40
4828;DHT22;2428;48.732;9.148;2022-08-07T19:53:55;21.50;77.20
4828;DHT22;2428;48.732;9.148;2022-08-07T19:56:23;21.40;78.90
4828;DHT22;2428;48.732;9.148;2022-08-07T19:58:52;21.40;79.80
4828;DHT22;2428;48.732;9.148;2022-08-07T20:01:19;21.30;81.40
4828;DHT22;2428;48.732;9.148;2022-08-07T20:03:46;21.20;82.00
4828;DHT22;2428;48.732;9.148;2022-08-07T20:06:13;21.10;79.60
4828;DHT22;2428;48.732;9.148;2022-08-07T20:08:40;21.10;74.90
4828;DHT22;2428;48.732;9.148;2022-08-07T20:11:10;21.00;82.20
4828;DHT22;2428;48.732;9.148;2022-08-07T20:13:44;20.90;82.60
4828;DHT22;2428;48.732;9.148;2022-08-07T20:16:12;20.80;78.40
4828;DHT22;2428;48.732;9.148;2022-08-07T20:18:42;20.80;85.40
4828;DHT22;2428;48.732;9.148;2022-08-07T20:21:09;20.70;79.40
4828;DHT22;2428;48.732;9.148;2022-08-07T20:23:36;20.70;83.30
4828;DHT22;2428;48.732;9.148;2022-08-07T20:26:06;20.60;86.50
4828;DHT22;2428;48.732;9.148;2022-08-07T20:28:35;20.60;82.30
4828;DHT22;2428;48.732;9.148;2022-08-07T20:31:13;20.50;80.70
4828;DHT22;2428;48.732;9.148;2022-08-07T20:33:40;20.50;85.90
4828;DHT22;2428;48.732;9.148;2022-08-07T20:36:10;20.40;86.70
4828;DHT22;2428;48.732;9.148;2022-08-07T20:38:41;20.30;84.60
4828;DHT22;2428;48.732;9.148;2022-08-07T20:41:07;20.30;79.10
4828;DHT22;2428;48.732;9.148;2022-08-07T20:43:34;20.30;83.30
4828;DHT22;2428;48.732;9.148;2022-08-07T20:46:01;20.20;85.70
4828;DHT22;2428;48.732;9.148;2022-08-07T20:48:30;20.20;80.00
4828;DHT22;2428;48.732;9.148;2022-08-07T20:51:05;20.20;80.30
4828;DHT22;2428;48.732;9.148;2022-08-07T20:53:36;20.10;85.00